Time;durP1;ratioP1;P1;durP2;ratioP2;P2;SDS_P1;SDS_P2;PMS_P1;PMS_P2;Temp;Humidity;BMP_temperature;BMP_pressure;BME280_temperature;BME280_humidity;BME280_pressure;Samples;Min_cycle;Max_cycle;Signal;HPM_P1;HPM_P2
2021/12/09 00:01:01;;;;;;;8.23;4.43;;;4.20;99.90;;;;;;5088046;28;20156;-67
2021/12/09 00:03:28;;;;;;;4.18;3.60;;;4.30;99.90;;;;;;5087890;28;20352;-67
2021/12/09 00:05:56;;;;;;;4.75;3.78;;;4.30;99.90;;;;;;5088220;28;20157;-68
2021/12/09 00:08:25;;;;;;;4.90;3.35;;;4.30;99.90;;;;;;5088054;28;20169;-68
2021/12/09 00:10:50;;;;;;;5.47;5.03;;;4.30;99.90;;;;;;5088210;28;20216;-69
2021/12/09 00:13:18;;;;;;;3.15;2.80;;;4.30;99.90;;;;;;5069999;28;20212;-68
2021/12/09 00:15:43;;;;;;;4.33;3.93;;;4.30;99.90;;;;;;5087986;28;20214;-68
2021/12/09 00:18:09;;;;;;;8.57;4.07;;;4.30;99.90;;;;;;5087715;28;20168;-68
2021/12/09 00:20:35;;;;;;;12.93;3.60;;;4.40;99.90;;;;;;5087971;28;20184;-69
2021/12/09 00:23:00;;;;;;;4.20;3.23;;;4.40;99.90;;;;;;5087886;28;20302;-68
2021/12/09 00:25:27;;;;;;;3.93;3.63;;;4.40;99.90;;;;;;5087941;28;20235;-67
2021/12/09 00:27:52;;;;;;;3.28;3.05;;;4.40;99.90;;;;;;5087582;28;20168;-68
2021/12/09 00:30:20;;;;;;;5.57;5.07;;;4.50;99.90;;;;;;5087736;28;20200;-68
2021/12/09 00:32:46;;;;;;;6.20;4.60;;;4.50;99.90;;;;;;5074745;28;20157;-68
2021/12/09 00:35:15;;;;;;;7.95;4.55;;;4.50;99.90;;;;;;5067709;28;20196;-67
2021/12/09 00:37:52;;;;;;;4.32;3.95;;;4.50;99.90;;;;;;5049851;28;20184;-68
2021/12/09 00:40:18;;;;;;;8.32;4.25;;;4.50;99.90;;;;;;5067767;28;20188;-67
2021/12/09 00:42:44;;;;;;;4.68;4.28;;;4.40;99.90;;;;;;5067597;28;20184;-68
2021/12/09 00:45:10;;;;;;;5.33;3.60;;;4.50;99.90;;;;;;5067412;28;20169;-68
2021/12/09 00:47:37;;;;;;;9.10;3.40;;;4.40;99.90;;;;;;5067154;28;20166;-67
2021/12/09 00:50:03;;;;;;;2.75;1.85;;;4.50;99.90;;;;;;5067191;28;20204;-68
2021/12/09 00:52:29;;;;;;;2.20;1.95;;;4.50;99.90;;;;;;5050137;28;20218;-68
2021/12/09 00:54:57;;;;;;;2.50;2.30;;;4.50;99.90;;;;;;5067294;28;20209;-67
2021/12/09 00:57:24;;;;;;;2.58;2.45;;;4.50;99.90;;;;;;5067089;28;20162;-67
2021/12/09 00:59:50;;;;;;;2.63;1.95;;;4.40;99.90;;;;;;5067275;28;20177;-67
2021/12/09 01:02:16;;;;;;;6.25;2.80;;;4.40;99.90;;;;;;5067216;28;20247;-67
2021/12/09 01:04:44;;;;;;;4.70;2.10;;;4.40;99.90;;;;;;5067119;28;20177;-67
2021/12/09 01:07:10;;;;;;;2.28;1.88;;;4.40;99.90;;;;;;5066802;28;20400;-68
2021/12/09 01:09:36;;;;;;;5.10;2.47;;;4.40;99.90;;;;;;5067134;28;20193;-67
2021/12/09 01:12:03;;;;;;;1.60;1.50;;;4.40;99.90;;;;;;5066174;28;20612;-68
2021/12/09 01:14:28;;;;;;;3.65;2.45;;;4.30;99.90;;;;;;5066956;28;20273;-67
2021/12/09 01:16:54;;;;;;;2.50;2.10;;;4.30;99.90;;;;;;5066797;28;20181;-68
2021/12/09 01:19:20;;;;;;;2.50;2.30;;;4.30;99.90;;;;;;5067140;28;20389;-67
2021/12/09 01:21:45;;;;;;;3.10;2.90;;;4.30;99.90;;;;;;5049444;28;20294;-67
2021/12/09 01:24:11;;;;;;;2.10;1.70;;;4.30;99.90;;;;;;5066957;28;20218;-67
2021/12/09 01:26:37;;;;;;;4.90;2.00;;;4.20;99.90;;;;;;5066651;28;20386;-66
2021/12/09 01:29:12;;;;;;;2.20;2.10;;;4.10;99.90;;;;;;5066908;28;20461;-67
2021/12/09 01:31:39;;;;;;;1.88;1.77;;;4.10;99.90;;;;;;5070504;28;20227;-67
2021/12/09 01:34:05;;;;;;;1.63;1.52;;;4.10;99.90;;;;;;5086948;28;20193;-68
2021/12/09 01:36:34;;;;;;;3.90;2.63;;;4.00;99.90;;;;;;5086707;28;20213;-67
2021/12/09 01:39:01;;;;;;;1.40;1.30;;;4.00;99.90;;;;;;5086811;28;20197;-68
2021/12/09 01:41:27;;;;;;;1.70;1.58;;;4.10;99.90;;;;;;5086739;28;20163;-66
2021/12/09 01:43:54;;;;;;;1.50;1.40;;;4.10;99.90;;;;;;5086778;28;20260;-68
2021/12/09 01:46:23;;;;;;;2.85;2.20;;;4.10;99.90;;;;;;5086561;28;20168;-68
2021/12/09 01:48:50;;;;;;;1.48;1.38;;;4.10;99.90;;;;;;5086746;28;20239;-66
2021/12/09 01:51:17;;;;;;;2.55;1.67;;;4.10;99.90;;;;;;5086898;28;20192;-67
2021/12/09 01:53:45;;;;;;;1.88;1.25;;;4.10;99.90;;;;;;5086702;28;20252;-68
2021/12/09 01:56:20;;;;;;;2.47;2.28;;;4.20;99.90;;;;;;5086629;28;20165;-68
2021/12/09 01:58:51;;;;;;;2.45;2.15;;;4.30;99.90;;;;;;5086766;28;20156;-66
2021/12/09 02:01:17;;;;;;;2.45;1.25;;;4.30;99.90;;;;;;5086754;28;20272;-66
2021/12/09 02:03:44;;;;;;;3.13;2.25;;;4.30;99.90;;;;;;5086459;28;20305;-67
2021/12/09 02:06:09;;;;;;;2.28;1.98;;;4.30;99.90;;;;;;5086487;28;20164;-68
2021/12/09 02:08:36;;;;;;;2.37;2.27;;;4.30;99.90;;;;;;5086267;28;20187;-67
2021/12/09 02:11:02;;;;;;;1.98;1.20;;;4.30;99.90;;;;;;5086560;28;20433;-67
2021/12/09 02:13:28;;;;;;;4.25;2.28;;;4.30;99.90;;;;;;5086319;28;20249;-67
2021/12/09 02:15:55;;;;;;;6.05;1.73;;;4.30;99.90;;;;;;5086608;28;20180;-68
2021/12/09 02:18:21;;;;;;;2.25;2.00;;;4.30;99.90;;;;;;5086295;28;20173;-67
2021/12/09 02:21:22;;;;;;;1.92;1.75;;;4.30;99.90;;;;;;5086519;28;20255;-67
2021/12/09 02:23:51;;;;;;;3.15;1.95;;;4.30;99.90;;;;;;5068911;28;20305;-67
2021/12/09 02:26:20;;;;;;;3.50;3.15;;;4.30;99.90;;;;;;5090054;28;20228;-67
2021/12/09 02:28:48;;;;;;;3.53;2.88;;;4.20;99.90;;;;;;5090127;28;20161;-67
2021/12/09 02:31:14;;;;;;;4.03;2.58;;;4.30;99.90;;;;;;5090080;28;20292;-67
2021/12/09 02:33:39;;;;;;;2.53;2.43;;;4.30;99.90;;;;;;5090048;28;20180;-69
2021/12/09 02:36:05;;;;;;;3.17;2.43;;;4.30;99.90;;;;;;5089981;28;20444;-67
2021/12/09 02:38:31;;;;;;;4.22;2.95;;;4.30;99.90;;;;;;5089759;28;20188;-66
2021/12/09 02:40:58;;;;;;;2.40;2.20;;;4.30;99.90;;;;;;5089903;28;20161;-66
2021/12/09 02:43:27;;;;;;;2.47;2.33;;;4.40;99.90;;;;;;5089878;28;20191;-68
2021/12/09 02:45:53;;;;;;;2.90;2.70;;;4.40;99.90;;;;;;5089821;28;20192;-68
2021/12/09 02:48:20;;;;;;;4.65;3.20;;;4.40;99.90;;;;;;5089541;28;20329;-68
2021/12/09 02:50:47;;;;;;;4.07;2.70;;;4.40;99.90;;;;;;5089796;28;20205;-67
2021/12/09 02:53:13;;;;;;;2.50;2.30;;;4.40;99.90;;;;;;5089682;28;20192;-67
2021/12/09 02:55:39;;;;;;;2.50;2.30;;;4.40;99.90;;;;;;5089850;28;20456;-67
2021/12/09 02:58:04;;;;;;;1.67;1.60;;;4.40;99.90;;;;;;5071942;28;20663;-67
2021/12/09 03:00:31;;;;;;;2.67;2.47;;;4.30;99.90;;;;;;5089465;28;20189;-68
2021/12/09 03:02:58;;;;;;;2.00;1.80;;;4.30;99.90;;;;;;5089310;28;20502;-68
2021/12/09 03:05:25;;;;;;;4.18;3.55;;;4.30;99.90;;;;;;5089479;28;20176;-67
2021/12/09 03:07:51;;;;;;;2.67;2.35;;;4.30;99.90;;;;;;5089147;28;20164;-67
2021/12/09 03:10:24;;;;;;;2.05;1.80;;;4.30;99.90;;;;;;5089446;28;20223;-67
2021/12/09 03:12:53;;;;;;;3.67;2.78;;;4.30;99.90;;;;;;5089408;28;20181;-67
2021/12/09 03:15:19;;;;;;;3.10;2.15;;;4.30;99.90;;;;;;5089370;28;20200;-67
2021/12/09 03:17:47;;;;;;;2.72;2.53;;;4.30;99.90;;;;;;5089078;28;20169;-67
2021/12/09 03:20:14;;;;;;;4.10;2.50;;;4.30;99.90;;;;;;5089335;28;20157;-67
2021/12/09 03:22:40;;;;;;;4.90;3.10;;;4.20;99.90;;;;;;5089308;28;20180;-67
2021/12/09 03:25:08;;;;;;;2.42;2.15;;;4.20;99.90;;;;;;5089196;28;20165;-67
2021/12/09 03:27:34;;;;;;;2.80;2.60;;;4.20;99.90;;;;;;5088835;28;20167;-68
2021/12/09 03:30:00;;;;;;;3.93;2.87;;;4.30;99.90;;;;;;5088939;28;20204;-67
2021/12/09 03:32:26;;;;;;;6.83;2.23;;;4.20;99.90;;;;;;5078781;28;20235;-68
2021/12/09 03:34:51;;;;;;;6.87;3.07;;;4.20;99.90;;;;;;5050294;28;20451;-67
2021/12/09 03:37:25;;;;;;;3.10;2.10;;;4.20;99.90;;;;;;5068550;28;20177;-69
2021/12/09 03:39:52;;;;;;;2.50;2.30;;;4.20;99.90;;;;;;5068861;28;20177;-68
2021/12/09 03:42:21;;;;;;;4.63;2.60;;;4.20;99.90;;;;;;5068771;28;20165;-67
2021/12/09 03:44:48;;;;;;;2.55;2.13;;;4.20;99.90;;;;;;5068704;28;20182;-67
2021/12/09 03:47:17;;;;;;;1.95;1.85;;;4.20;99.90;;;;;;5068491;28;20188;-67
2021/12/09 03:49:44;;;;;;;4.85;2.22;;;4.20;99.90;;;;;;5068599;28;20247;-66
2021/12/09 03:52:11;;;;;;;4.45;2.40;;;4.20;99.90;;;;;;5068624;28;20157;-67
2021/12/09 03:54:38;;;;;;;3.63;3.33;;;4.10;99.90;;;;;;5068478;28;20350;-68
2021/12/09 03:57:05;;;;;;;3.28;3.00;;;4.10;99.90;;;;;;5068370;28;20171;-68
2021/12/09 03:59:31;;;;;;;3.08;2.17;;;4.10;99.90;;;;;;5068532;28;20401;-68
2021/12/09 04:01:56;;;;;;;2.35;2.17;;;4.20;99.90;;;;;;5068489;28;20339;-68
2021/12/09 04:04:23;;;;;;;6.20;2.80;;;4.10;99.90;;;;;;5068440;28;20204;-68
2021/12/09 04:06:49;;;;;;;5.07;3.63;;;4.10;99.90;;;;;;5068150;28;20161;-68
2021/12/09 04:09:18;;;;;;;2.63;2.43;;;4.10;99.90;;;;;;5068365;28;20225;-68
2021/12/09 04:11:44;;;;;;;3.65;3.35;;;4.10;99.90;;;;;;5068561;28;20417;-69
2021/12/09 04:14:10;;;;;;;2.50;2.27;;;4.10;99.90;;;;;;5068464;28;20194;-67
2021/12/09 04:16:37;;;;;;;2.23;2.03;;;4.10;99.90;;;;;;5068541;28;20269;-68
2021/12/09 04:19:05;;;;;;;3.65;3.10;;;4.10;99.90;;;;;;5068388;28;20169;-68
2021/12/09 04:21:31;;;;;;;3.83;2.83;;;4.10;99.90;;;;;;5068033;28;20255;-68
2021/12/09 04:23:57;;;;;;;5.63;3.43;;;4.10;99.90;;;;;;5067783;28;20204;-68
2021/12/09 04:26:22;;;;;;;3.10;2.40;;;4.10;99.90;;;;;;5067640;28;20429;-68
2021/12/09 04:28:49;;;;;;;5.53;4.27;;;4.10;99.90;;;;;;5067913;28;20170;-68
2021/12/09 04:31:15;;;;;;;6.30;2.85;;;4.10;99.90;;;;;;5068036;28;20172;-68
2021/12/09 04:33:42;;;;;;;2.95;2.45;;;4.10;99.90;;;;;;5070189;28;20192;-69
2021/12/09 04:36:09;;;;;;;3.58;2.25;;;4.10;99.90;;;;;;5087721;28;20185;-68
2021/12/09 04:38:35;;;;;;;4.22;2.83;;;4.10;99.90;;;;;;5087527;28;20165;-68
2021/12/09 04:41:00;;;;;;;4.20;3.23;;;4.10;99.90;;;;;;5087671;28;20180;-68
2021/12/09 04:43:26;;;;;;;4.93;2.70;;;4.10;99.90;;;;;;5087593;28;20434;-68
2021/12/09 04:45:52;;;;;;;2.27;2.03;;;4.00;99.90;;;;;;5087368;28;20360;-68
2021/12/09 04:48:17;;;;;;;4.10;2.53;;;4.00;99.90;;;;;;5087169;28;20196;-68
2021/12/09 04:50:44;;;;;;;4.07;3.07;;;4.00;99.90;;;;;;5069974;28;20196;-68
2021/12/09 04:53:10;;;;;;;3.03;2.30;;;4.00;99.90;;;;;;5069772;28;21186;-66
2021/12/09 04:55:36;;;;;;;4.88;2.40;;;3.90;99.90;;;;;;5087453;28;20173;-68
2021/12/09 04:58:03;;;;;;;2.60;2.40;;;3.90;99.90;;;;;;5087019;28;20243;-68
2021/12/09 05:00:32;;;;;;;4.22;3.33;;;3.90;99.90;;;;;;5087403;28;20404;-68
2021/12/09 05:05:26;;;;;;;3.90;2.63;;;3.90;99.90;;;;;;5087141;28;20203;-68
2021/12/09 05:07:52;;;;;;;3.77;2.93;;;3.90;99.90;;;;;;5087001;28;20165;-68
2021/12/09 05:10:17;;;;;;;4.07;3.73;;;3.90;99.90;;;;;;5087143;28;20416;-68
2021/12/09 05:12:43;;;;;;;4.27;3.20;;;3.90;99.90;;;;;;5087131;28;20399;-68
2021/12/09 05:15:10;;;;;;;2.90;2.33;;;4.00;99.90;;;;;;5087154;28;20165;-67
2021/12/09 05:17:35;;;;;;;6.32;2.60;;;3.90;99.90;;;;;;5086691;28;20176;-68
2021/12/09 05:20:02;;;;;;;2.73;2.53;;;3.90;99.90;;;;;;5087026;28;20284;-68
2021/12/09 05:22:28;;;;;;;1.98;1.83;;;3.90;99.90;;;;;;5087001;28;20559;-67
2021/12/09 05:24:54;;;;;;;5.83;4.23;;;3.90;99.90;;;;;;5087176;28;20196;-67
2021/12/09 05:27:20;;;;;;;4.00;2.92;;;3.90;99.90;;;;;;5086660;28;20287;-68
2021/12/09 05:29:53;;;;;;;5.67;2.60;;;4.00;99.90;;;;;;5069218;28;20220;-68
2021/12/09 05:32:20;;;;;;;2.97;2.35;;;4.00;99.90;;;;;;5077675;28;20514;-68
2021/12/09 05:34:50;;;;;;;4.50;2.30;;;4.10;99.90;;;;;;5066670;28;20211;-67
2021/12/09 05:37:21;;;;;;;8.90;3.10;;;4.10;99.90;;;;;;5066489;28;20192;-68
2021/12/09 05:39:48;;;;;;;4.57;3.35;;;4.10;99.90;;;;;;5066831;28;20165;-65
2021/12/09 05:42:17;;;;;;;9.25;2.55;;;4.10;99.90;;;;;;5066779;28;20169;-67
2021/12/09 05:44:43;;;;;;;3.55;1.63;;;4.10;99.90;;;;;;5066629;28;20196;-67
2021/12/09 05:47:09;;;;;;;1.67;1.57;;;4.10;99.90;;;;;;5066333;28;20233;-68
2021/12/09 05:49:37;;;;;;;2.33;2.17;;;4.10;99.90;;;;;;5066553;28;20546;-67
2021/12/09 05:52:05;;;;;;;3.88;3.50;;;4.10;99.90;;;;;;5066592;28;20200;-67
2021/12/09 05:54:31;;;;;;;3.20;3.00;;;4.10;99.90;;;;;;5066562;28;20184;-67
2021/12/09 05:56:58;;;;;;;4.10;2.50;;;4.10;99.90;;;;;;5066349;28;20181;-68
2021/12/09 05:59:25;;;;;;;3.15;2.95;;;4.10;99.90;;;;;;5070708;28;20495;-67
2021/12/09 06:01:51;;;;;;;2.10;2.00;;;4.10;99.90;;;;;;5070601;28;20417;-69
2021/12/09 06:04:17;;;;;;;3.33;3.03;;;4.20;99.90;;;;;;5070364;28;20487;-68
2021/12/09 06:06:43;;;;;;;2.67;2.10;;;4.10;99.90;;;;;;5070273;28;20161;-68
2021/12/09 06:09:10;;;;;;;7.28;2.33;;;4.10;99.90;;;;;;5070450;28;20201;-69
2021/12/09 06:11:37;;;;;;;4.88;2.03;;;4.10;99.90;;;;;;5070464;28;20170;-69
2021/12/09 06:14:04;;;;;;;2.40;2.22;;;4.10;99.90;;;;;;5070241;28;20193;-69
2021/12/09 06:16:29;;;;;;;2.38;2.15;;;4.10;99.90;;;;;;5069896;28;20212;-69
2021/12/09 06:18:55;;;;;;;2.73;2.23;;;4.10;99.90;;;;;;5070367;28;20169;-69
2021/12/09 06:21:24;;;;;;;3.80;3.00;;;4.10;99.90;;;;;;5070234;28;20285;-69
2021/12/09 06:23:50;;;;;;;2.50;1.50;;;4.10;99.90;;;;;;5070220;28;20186;-69
2021/12/09 06:26:16;;;;;;;2.60;2.03;;;4.10;99.90;;;;;;5069950;28;20169;-69
2021/12/09 06:28:42;;;;;;;3.83;2.50;;;4.10;99.90;;;;;;5070254;28;20162;-68
2021/12/09 06:31:08;;;;;;;3.20;3.00;;;4.10;99.90;;;;;;5069985;28;20243;-70
2021/12/09 06:33:33;;;;;;;1.57;1.47;;;4.10;99.90;;;;;;5089392;28;20188;-66
2021/12/09 06:35:59;;;;;;;2.00;1.67;;;4.00;99.90;;;;;;5089943;28;20631;-69
2021/12/09 06:38:26;;;;;;;3.53;3.22;;;4.00;99.90;;;;;;5089685;28;20183;-68
2021/12/09 06:40:52;;;;;;;2.35;2.25;;;3.90;99.90;;;;;;5090006;28;20169;-68
2021/12/09 06:43:18;;;;;;;3.58;3.30;;;3.90;99.90;;;;;;5089767;28;20193;-68
2021/12/09 06:45:44;;;;;;;1.53;1.43;;;3.90;99.90;;;;;;5089845;28;20431;-67
2021/12/09 06:48:10;;;;;;;3.63;1.65;;;3.90;99.90;;;;;;5089499;28;20177;-67
2021/12/09 06:50:36;;;;;;;2.55;2.10;;;3.90;99.90;;;;;;5089712;28;20267;-68
2021/12/09 06:53:03;;;;;;;3.30;2.92;;;3.90;99.90;;;;;;5089587;28;20230;-68
2021/12/09 06:55:28;;;;;;;2.80;2.60;;;3.90;99.90;;;;;;5072258;28;20219;-68
2021/12/09 06:57:54;;;;;;;2.53;2.10;;;3.90;99.90;;;;;;5089280;28;20160;-68
2021/12/09 07:00:27;;;;;;;5.28;2.33;;;3.90;99.90;;;;;;5089534;28;20181;-67
2021/12/09 07:02:53;;;;;;;4.72;1.90;;;3.90;99.90;;;;;;5089389;28;20185;-68
2021/12/09 07:05:21;;;;;;;3.28;2.00;;;3.90;99.90;;;;;;5089456;28;20427;-68
2021/12/09 07:07:47;;;;;;;2.88;2.53;;;3.90;99.90;;;;;;5089352;28;20176;-68
2021/12/09 07:10:14;;;;;;;1.33;1.33;;;3.90;99.90;;;;;;5089280;28;20200;-67
2021/12/09 07:12:40;;;;;;;3.00;2.03;;;3.90;99.90;;;;;;5087393;28;20185;-66
2021/12/09 07:15:09;;;;;;;1.80;1.70;;;3.90;99.90;;;;;;5089277;28;20161;-66
2021/12/09 07:17:35;;;;;;;2.50;2.25;;;3.80;99.90;;;;;;5089014;28;20168;-67
2021/12/09 07:20:03;;;;;;;16.10;3.10;;;3.90;99.90;;;;;;5089343;28;20290;-66
2021/12/09 07:22:28;;;;;;;1.92;1.70;;;3.80;99.90;;;;;;5089172;28;20403;-67
2021/12/09 07:24:54;;;;;;;2.27;2.10;;;3.90;99.90;;;;;;5089132;28;20200;-66
2021/12/09 07:27:20;;;;;;;4.00;2.17;;;3.90;99.90;;;;;;5088608;28;20187;-66
2021/12/09 07:29:45;;;;;;;1.93;1.33;;;3.90;99.90;;;;;;5088788;28;20210;-67
2021/12/09 07:32:11;;;;;;;2.23;2.13;;;3.90;99.90;;;;;;5080613;28;20181;-66
2021/12/09 07:34:37;;;;;;;2.67;2.20;;;4.00;99.90;;;;;;5068761;28;20193;-66
2021/12/09 07:37:04;;;;;;;2.47;2.15;;;4.00;99.90;;;;;;5068422;28;20385;-66
2021/12/09 07:39:33;;;;;;;2.75;2.53;;;4.00;99.90;;;;;;5068549;28;20195;-66
2021/12/09 07:41:59;;;;;;;1.63;1.52;;;4.10;99.90;;;;;;5068603;28;20197;-66
2021/12/09 07:44:27;;;;;;;2.00;1.90;;;4.10;99.90;;;;;;5068694;28;20297;-66
2021/12/09 07:46:54;;;;;;;2.63;2.40;;;4.20;99.90;;;;;;5068343;28;20185;-65
2021/12/09 07:49:20;;;;;;;8.18;3.00;;;4.20;99.90;;;;;;5068391;28;20224;-66
2021/12/09 07:51:46;;;;;;;4.28;2.75;;;4.30;99.90;;;;;;5068532;28;20176;-66
2021/12/09 07:54:12;;;;;;;4.60;3.53;;;4.30;99.90;;;;;;5068345;28;20189;-66
2021/12/09 07:56:37;;;;;;;4.60;2.57;;;4.30;99.90;;;;;;5068415;28;20244;-66
2021/12/09 07:59:03;;;;;;;2.77;2.37;;;4.30;99.90;;;;;;5068060;28;20177;-67
2021/12/09 08:01:29;;;;;;;3.83;2.43;;;4.40;99.90;;;;;;5068404;28;20318;-66
2021/12/09 08:03:55;;;;;;;3.10;2.80;;;4.40;99.90;;;;;;5066875;28;20208;-66
2021/12/09 08:06:21;;;;;;;2.60;2.47;;;4.50;99.90;;;;;;5068102;28;20333;-66
2021/12/09 08:08:47;;;;;;;1.70;1.63;;;4.50;99.90;;;;;;5068142;28;20204;-66
2021/12/09 08:11:13;;;;;;;4.30;2.97;;;4.50;99.90;;;;;;5068206;28;20206;-66
2021/12/09 08:13:38;;;;;;;2.43;2.33;;;4.60;99.90;;;;;;5068246;28;20464;-67
2021/12/09 08:16:04;;;;;;;2.70;2.40;;;4.60;99.90;;;;;;5068177;28;20223;-66
2021/12/09 08:18:43;;;;;;;3.33;3.10;;;4.60;99.90;;;;;;5067961;28;20403;-66
2021/12/09 08:21:08;;;;;;;4.18;2.40;;;4.60;99.90;;;;;;5067540;28;20191;-66
2021/12/09 08:23:34;;;;;;;4.90;1.80;;;4.70;99.90;;;;;;5067859;28;20314;-66
2021/12/09 08:26:00;;;;;;;3.33;3.03;;;4.70;99.90;;;;;;5068199;28;20416;-66
2021/12/09 08:28:26;;;;;;;4.17;2.80;;;4.70;99.90;;;;;;5067659;28;20381;-65
2021/12/09 08:30:52;;;;;;;4.63;2.20;;;4.70;99.90;;;;;;5067805;28;20217;-65
2021/12/09 08:33:24;;;;;;;2.83;2.58;;;4.80;99.90;;;;;;5067359;28;20193;-66
2021/12/09 08:35:50;;;;;;;3.75;2.97;;;4.80;99.90;;;;;;5087749;28;20176;-65
2021/12/09 08:38:17;;;;;;;2.23;2.03;;;4.90;99.90;;;;;;5087213;28;20165;-68
2021/12/09 08:40:43;;;;;;;6.05;2.30;;;4.90;99.90;;;;;;5087851;28;20620;-66
2021/12/09 08:43:09;;;;;;;2.90;2.30;;;4.90;99.90;;;;;;5087510;28;20182;-66
2021/12/09 08:45:35;;;;;;;3.60;2.97;;;5.00;99.90;;;;;;5087545;28;20184;-66
2021/12/09 08:48:01;;;;;;;3.20;3.00;;;5.00;99.90;;;;;;5087253;28;20366;-67
2021/12/09 08:50:33;;;;;;;5.68;4.30;;;5.00;99.90;;;;;;5087250;28;20221;-67
2021/12/09 08:52:59;;;;;;;9.93;3.85;;;5.10;99.90;;;;;;5087396;28;20176;-66
2021/12/09 08:55:25;;;;;;;4.13;3.25;;;5.20;99.90;;;;;;5087494;28;20345;-66
2021/12/09 08:57:51;;;;;;;3.27;2.67;;;5.20;99.90;;;;;;5087127;28;20202;-66
2021/12/09 09:00:18;;;;;;;3.40;3.08;;;5.20;99.90;;;;;;5087459;28;20231;-66
2021/12/09 09:02:47;;;;;;;2.55;2.35;;;5.20;99.90;;;;;;5087107;28;20185;-66
2021/12/09 09:05:14;;;;;;;3.95;2.47;;;5.30;99.90;;;;;;5087307;28;20161;-65
2021/12/09 09:07:44;;;;;;;2.80;2.60;;;5.40;99.90;;;;;;5087071;28;20289;-66
2021/12/09 09:10:13;;;;;;;1.83;1.70;;;5.40;99.90;;;;;;5087129;28;20255;-66
2021/12/09 09:12:40;;;;;;;3.15;2.95;;;5.50;99.90;;;;;;5087167;28;20176;-66
2021/12/09 09:15:08;;;;;;;4.75;1.70;;;5.50;99.90;;;;;;5087132;28;20306;-66
2021/12/09 09:17:35;;;;;;;4.63;2.55;;;5.50;99.90;;;;;;5086833;28;20311;-67
2021/12/09 09:20:00;;;;;;;2.00;1.90;;;5.50;99.90;;;;;;5087057;28;20271;-66
2021/12/09 09:22:26;;;;;;;3.60;2.47;;;5.50;99.90;;;;;;5087267;28;20198;-67
2021/12/09 09:24:52;;;;;;;3.17;2.60;;;5.50;99.90;;;;;;5086973;28;20314;-66
2021/12/09 09:27:18;;;;;;;5.57;2.03;;;5.60;99.90;;;;;;5086712;28;20204;-66
2021/12/09 09:29:43;;;;;;;3.87;2.37;;;5.60;99.90;;;;;;5087003;28;20194;-66
2021/12/09 09:32:12;;;;;;;4.30;3.00;;;5.70;99.90;;;;;;5078186;28;20407;-67
2021/12/09 09:34:38;;;;;;;2.70;2.45;;;5.80;99.90;;;;;;5066977;28;20195;-66
2021/12/09 09:37:05;;;;;;;5.63;2.17;;;5.90;99.90;;;;;;5066594;28;20174;-67
2021/12/09 09:39:32;;;;;;;5.03;2.45;;;6.00;99.90;;;;;;5066959;28;20372;-67
2021/12/09 09:44:47;;;;;;;3.03;2.83;;;6.20;99.90;;;;;;5066880;28;20199;-67
2021/12/09 09:47:14;;;;;;;3.20;2.90;;;6.30;99.90;;;;;;5066496;28;20164;-67
2021/12/09 09:49:40;;;;;;;4.25;1.70;;;6.40;99.90;;;;;;5066706;28;20224;-66
2021/12/09 09:52:08;;;;;;;2.70;2.60;;;6.50;99.90;;;;;;5066692;28;20169;-66
2021/12/09 09:54:35;;;;;;;2.45;2.25;;;6.60;99.90;;;;;;5066471;28;20237;-66
2021/12/09 09:57:00;;;;;;;2.80;2.60;;;6.60;99.90;;;;;;5066351;28;20169;-66
2021/12/09 09:59:26;;;;;;;4.63;2.17;;;6.60;99.90;;;;;;5066670;28;20219;-66
2021/12/09 10:01:55;;;;;;;2.53;2.33;;;6.70;99.90;;;;;;5066786;28;20161;-66
2021/12/09 10:07:07;;;;;;;3.45;2.70;;;6.70;99.90;;;;;;5066316;28;20191;-66
2021/12/09 10:09:33;;;;;;;1.90;1.77;;;6.60;99.90;;;;;;5066431;28;20200;-65
2021/12/09 10:12:00;;;;;;;2.60;2.40;;;6.50;99.90;;;;;;5066624;28;20191;-67
2021/12/09 10:14:29;;;;;;;2.97;2.70;;;6.50;99.90;;;;;;5066677;28;20219;-66
2021/12/09 10:17:06;;;;;;;2.78;2.58;;;6.40;99.90;;;;;;5066288;28;20195;-67
2021/12/09 10:19:34;;;;;;;2.45;2.25;;;6.50;99.90;;;;;;5066421;28;20175;-66
2021/12/09 10:22:12;;;;;;;2.85;2.45;;;6.50;99.90;;;;;;5066369;28;20176;-65
2021/12/09 10:24:41;;;;;;;2.00;1.90;;;6.50;99.90;;;;;;5066356;28;20200;-66
2021/12/09 10:27:08;;;;;;;1.45;1.35;;;6.50;99.90;;;;;;5065822;28;20172;-67
2021/12/09 10:29:44;;;;;;;2.28;1.95;;;6.50;99.90;;;;;;5065853;28;20272;-66
2021/12/09 10:32:17;;;;;;;3.50;2.25;;;6.40;99.90;;;;;;5074209;28;20176;-66
2021/12/09 10:34:46;;;;;;;3.63;2.22;;;6.40;99.90;;;;;;5086061;28;20227;-66
2021/12/09 10:37:13;;;;;;;1.65;1.55;;;6.40;99.90;;;;;;5085982;28;20375;-66
2021/12/09 10:39:46;;;;;;;2.65;2.45;;;6.40;99.90;;;;;;5086189;28;20176;-66
2021/12/09 10:42:14;;;;;;;1.90;1.80;;;6.50;99.90;;;;;;5086115;28;20163;-66
2021/12/09 10:44:47;;;;;;;2.47;2.28;;;6.60;99.90;;;;;;5088769;28;20423;-66
2021/12/09 10:47:35;;;;;;;4.00;2.67;;;6.60;99.90;;;;;;5089441;28;20187;-66
2021/12/09 10:50:11;;;;;;;2.45;2.25;;;6.60;99.90;;;;;;5089711;28;20272;-66
2021/12/09 10:52:42;;;;;;;3.40;2.22;;;6.70;99.90;;;;;;5089797;28;20159;-66
2021/12/09 10:55:21;;;;;;;2.78;2.58;;;6.80;99.90;;;;;;5089758;28;20270;-66
2021/12/09 10:57:56;;;;;;;3.22;1.92;;;6.80;99.90;;;;;;5089166;28;20226;-66
2021/12/09 11:00:28;;;;;;;2.33;1.75;;;6.80;99.90;;;;;;5089820;28;20190;-66
2021/12/09 11:03:27;;;;;;;2.13;2.00;;;6.80;99.90;;;;;;5089549;28;20240;-67
2021/12/09 11:05:53;;;;;;;2.15;2.03;;;6.90;99.90;;;;;;5089449;28;20277;-66
2021/12/09 11:08:23;;;;;;;2.17;2.00;;;6.80;99.90;;;;;;5089097;28;20195;-66
2021/12/09 11:11:10;;;;;;;3.92;2.20;;;6.90;99.90;;;;;;5089314;28;20211;-66
2021/12/09 11:13:55;;;;;;;4.60;3.50;;;6.90;99.90;;;;;;5088566;28;20257;-66
2021/12/09 11:16:27;;;;;;;4.00;2.53;;;6.90;99.90;;;;;;5088807;28;20167;-66
2021/12/09 11:19:09;;;;;;;3.30;3.00;;;6.80;99.90;;;;;;5089491;28;20184;-66
2021/12/09 11:21:40;;;;;;;5.13;3.40;;;6.70;99.90;;;;;;5056082;28;20165;-66
2021/12/09 11:24:12;;;;;;;4.32;3.60;;;6.70;99.90;;;;;;5088998;28;20195;-66
2021/12/09 11:26:46;;;;;;;8.82;3.70;;;6.80;99.90;;;;;;5088727;28;20171;-66
2021/12/09 11:29:37;;;;;;;4.28;3.45;;;6.90;99.90;;;;;;5088834;28;20222;-66
2021/12/09 11:35:18;;;;;;;3.80;3.20;;;7.10;99.90;;;;;;5068767;28;20361;-66
2021/12/09 11:40:28;;;;;;;2.97;2.35;;;7.20;99.90;;;;;;5068770;28;20184;-67
2021/12/09 11:42:59;;;;;;;4.55;3.80;;;7.30;99.90;;;;;;5068488;28;20228;-67
2021/12/09 11:45:30;;;;;;;3.10;2.83;;;7.40;99.90;;;;;;5068588;28;20240;-66
2021/12/09 11:47:57;;;;;;;3.50;3.17;;;7.40;99.90;;;;;;5068369;28;20188;-67
2021/12/09 11:50:27;;;;;;;2.00;1.90;;;7.40;99.90;;;;;;5068436;28;20215;-66
2021/12/09 11:52:55;;;;;;;4.78;4.38;;;7.40;99.90;;;;;;5051057;28;20268;-67
2021/12/09 11:55:28;;;;;;;3.75;2.60;;;7.50;99.90;;;;;;5067451;28;20165;-66
2021/12/09 11:58:00;;;;;;;2.88;2.25;;;7.40;99.90;;;;;;5068036;28;20169;-66
2021/12/09 12:12:34;;;;;;;2.03;1.92;;;7.20;99.90;;;;;;5068288;28;20175;-67
2021/12/09 12:15:29;;;;;;;3.15;1.77;;;7.30;99.90;;;;;;5068346;28;20453;-66
2021/12/09 12:42:38;;;;;;;7.15;3.38;;;6.90;99.90;;;;;;5087745;28;20153;-67
2021/12/09 12:54:13;;;;;;;13.88;3.70;;;6.60;99.90;;;;;;5087491;28;20207;-67
2021/12/09 12:57:00;;;;;;;5.93;3.35;;;6.60;99.90;;;;;;5087071;28;20200;-66
2021/12/09 12:59:39;;;;;;;5.80;3.92;;;6.60;99.90;;;;;;5069723;28;20171;-66
2021/12/09 13:05:05;;;;;;;8.27;3.65;;;6.50;99.90;;;;;;5087120;28;20217;-66
2021/12/09 13:08:04;;;;;;;4.35;3.42;;;6.50;99.90;;;;;;5086825;28;20298;-65
2021/12/09 13:19:20;;;;;;;8.90;3.80;;;6.30;99.90;;;;;;5087314;28;20170;-66
2021/12/09 13:21:54;;;;;;;2.97;2.67;;;6.20;99.90;;;;;;5086879;28;20220;-65
2021/12/09 13:28:04;;;;;;;3.92;2.65;;;6.00;99.90;;;;;;5086761;28;20235;-65
2021/12/09 13:30:58;;;;;;;4.93;3.55;;;5.80;99.90;;;;;;5081895;28;20221;-64
2021/12/09 13:49:35;;;;;;;2.40;2.20;;;5.00;99.90;;;;;;5066769;28;20200;-66
2021/12/09 13:55:22;;;;;;;2.30;2.08;;;4.90;99.90;;;;;;5035836;28;20309;-67
2021/12/09 13:57:51;;;;;;;4.25;2.72;;;4.80;99.90;;;;;;5066511;28;20169;-66
2021/12/09 14:00:25;;;;;;;6.97;3.33;;;4.90;99.90;;;;;;5049033;28;20166;-66
2021/12/09 14:03:20;;;;;;;3.28;1.98;;;4.90;99.90;;;;;;5066187;28;20199;-66
2021/12/09 14:06:10;;;;;;;8.68;2.50;;;4.90;99.90;;;;;;5066571;28;20161;-66
2021/12/09 14:08:52;;;;;;;9.77;2.17;;;4.90;99.90;;;;;;5066290;28;20201;-66
2021/12/09 14:11:26;;;;;;;4.45;2.20;;;4.90;99.90;;;;;;5066284;28;20235;-66
2021/12/09 14:14:02;;;;;;;3.08;2.15;;;4.90;99.90;;;;;;5066458;28;20193;-65
2021/12/09 14:21:36;;;;;;;5.43;2.45;;;4.90;99.90;;;;;;5070317;28;20184;-66
2021/12/09 14:24:15;;;;;;;7.68;2.55;;;4.90;99.90;;;;;;5070110;28;20188;-65
2021/12/09 14:26:43;;;;;;;1.92;1.70;;;4.80;99.90;;;;;;5070054;28;20172;-66
2021/12/09 14:29:09;;;;;;;2.35;1.90;;;4.80;99.90;;;;;;5069925;28;20161;-65
2021/12/09 14:31:47;;;;;;;2.90;2.40;;;4.80;99.90;;;;;;5073008;28;20180;-67
2021/12/09 14:34:14;;;;;;;4.63;4.32;;;4.80;99.90;;;;;;5089588;28;20260;-66
2021/12/09 14:36:40;;;;;;;9.70;3.25;;;4.80;99.90;;;;;;5072005;28;20219;-66
2021/12/09 14:39:09;;;;;;;5.75;3.08;;;4.70;99.90;;;;;;5089881;28;20172;-65
2021/12/09 14:41:36;;;;;;;1.85;1.75;;;4.70;99.90;;;;;;5072423;28;20337;-65
2021/12/09 14:44:06;;;;;;;2.83;2.40;;;4.70;99.90;;;;;;5089782;28;20259;-65